Capitol Logistics 424


KMIA
Miami International Airport
Miami, Florida, US
KTUL
Tulsa International Airport
Tulsa, Oklahoma, US

Activity Log

Date Flight Route Aircraft Duration
12/03/2019 CPX424 WINCO2 WINCO J43 HEVVN IVLUH LIT RZC V13 EOS VINTA2 B738 3h 10m
09/13/2019 CPX424 WINCO2 WINCO CHRRI SMELZ Q116 PATOY JAWJA CABLO MEI SQS LIT B752 2h 43m
01/16/2019 CPX424 WINCO2 WINCO CHRRI SMELZ Q116 PATOY JAWJA CABLO MEI SQS LIT B752 3h 12m

Route Details

Aircraft Information
Primary: Boeing 757-200SF
Backup: Boeing 737-800BCF
Route Data
Distance: 1016nm
Sched. Duration: 2h 54m
Avg. Duration: 2h 89m (+34m)
Times Flown: 3
Recm'd Route: WINCO2 WINCO CHRRI SMELZ Q116 PATOY JAWJA CABLO MEI SQS LIT
Planned Altitude: 36,000ft
Origin Wx: KMIA 271853Z 11013KT 10SM SCT030 SCT180 SCT250 31/22 A3003 RMK AO2 SLP168 T03060217 $
Dest. Wx: KTUL 271853Z 35013KT 2SM -RA BR BKN005 OVC010 02/01 A3024 RMK AO2 SFC VIS 3 RAE24B46 SLP243 P0001 T00170006
Notes:

Financial History
Total Freight: 141,888lbs
Average Load: 47,296lbs/flt
Fuel Used: 59,033lbs
Avg. Fuel Used: 19,678lbs/flt
Fuel Expense: $72,611
Avg. Fuel Expense: $24,204
Avg. Fuel Cost: $1.23/lbs
Total Gross Income: $190,404
Pilot Pay: $527
Total Expenses: $20,720
Total Revenue: $95,336
Average Revenue: $63,467.84